logo dgac
Martes 28 de Mayo del 2024
Buscar por aerodromo o helipuerto
Ingrese nombre de aeródromo, localidad o designador OACI:
TAF: TAF SCCF 280440Z 2806/2906 11015KT CAVOK TNM00/2810Z TX24/2818Z BECMG 2815/2817 27020KT BECMG 2822/2900 27010KT BECMG 2902/2904 11017KT
TAF del 28/05/2024 a las 04:40 UTC
Para mayor información visite www.meteochile.gob.cl
Período de validez: desde el 28 a las 06:00 UTC hasta el 29 a las 06:00 UTC
Viento: dirección 110 grados, velocidad 15 nudos
Visibilidad: 10 km o más,
    sin nubes bajo los 5.000 pies o bajo del MSA (Mínimo de Seguridad del Aeródromo),
    sin cumulonimbus, y sin fenómenos de tiempo significativo en el aeródromo o alrededores
Nan: TNM00/2810Z
Temperatura máxima: 24ºC el 28 a las 18:00 UTC
Se espera un cambio entre las 15:00 UTC del 28 y las 17:00 UTC del 28, :
Viento: dirección 270 grados, velocidad 20 nudos
Se espera un cambio entre las 22:00 UTC del 28 y las 00:00 UTC del 29, :
Viento: dirección 270 grados, velocidad 10 nudos
Se espera un cambio entre las 02:00 UTC del 29 y las 04:00 UTC del 29, :
Viento: dirección 110 grados, velocidad 17 nudos